createdAt,value
2024-04-22T00:00:48.319Z,5.80
2024-04-22T00:03:15.283Z,5.90
2024-04-22T00:05:42.254Z,5.70
2024-04-22T00:08:09.193Z,6.00
2024-04-22T00:10:36.282Z,6.10
2024-04-22T00:13:03.352Z,6.20
2024-04-22T00:15:30.389Z,6.30
2024-04-22T00:17:57.432Z,6.30
2024-04-22T00:20:24.409Z,6.10
2024-04-22T00:22:51.422Z,5.90
2024-04-22T00:25:18.457Z,5.70
2024-04-22T00:27:45.447Z,5.70
2024-04-22T00:30:12.394Z,5.90
2024-04-22T00:32:39.428Z,5.90
2024-04-22T00:35:06.540Z,6.10
2024-04-22T00:37:33.554Z,6.10
2024-04-22T00:40:00.557Z,5.80
2024-04-22T00:42:27.572Z,5.50
2024-04-22T00:44:54.516Z,5.60
2024-04-22T00:47:21.788Z,5.60
2024-04-22T00:49:49.582Z,5.30
2024-04-22T00:52:16.793Z,5.20
2024-04-22T00:54:43.898Z,5.00
2024-04-22T00:57:12.932Z,5.00
2024-04-22T00:59:40.304Z,5.30
2024-04-22T01:02:07.273Z,5.30
2024-04-22T01:04:36.481Z,5.20
2024-04-22T01:07:03.712Z,5.50
2024-04-22T01:09:30.650Z,5.30
2024-04-22T01:11:57.692Z,5.20
2024-04-22T01:14:24.918Z,5.10
2024-04-22T01:16:55.824Z,5.20
2024-04-22T01:19:23.807Z,5.10
2024-04-22T01:21:52.038Z,5.00
2024-04-22T01:24:20.660Z,4.90
2024-04-22T01:26:49.252Z,4.70
2024-04-22T01:29:16.614Z,5.00
2024-04-22T01:31:43.691Z,5.00
2024-04-22T01:34:10.886Z,5.10
2024-04-22T01:36:42.222Z,5.10
2024-04-22T01:39:10.719Z,5.50
2024-04-22T01:41:37.740Z,5.60
2024-04-22T01:44:04.787Z,5.50
2024-04-22T01:46:31.937Z,5.30
2024-04-22T01:48:59.072Z,5.60
2024-04-22T01:51:26.029Z,5.60
2024-04-22T01:53:52.971Z,5.30
2024-04-22T01:56:19.942Z,5.30
2024-04-22T01:58:46.937Z,5.30
2024-04-22T02:01:14.089Z,5.30
2024-04-22T02:03:41.071Z,5.20
2024-04-22T02:06:08.085Z,5.10
2024-04-22T02:08:35.126Z,5.20
2024-04-22T02:11:02.310Z,5.40
2024-04-22T02:13:29.492Z,5.20
2024-04-22T02:15:56.449Z,5.30
2024-04-22T02:18:23.480Z,5.10
2024-04-22T02:20:50.466Z,5.10
2024-04-22T02:23:17.476Z,5.40
2024-04-22T02:25:45.627Z,5.00
2024-04-22T02:28:12.650Z,5.40
2024-04-22T02:30:39.710Z,5.60
2024-04-22T02:33:10.066Z,5.50
2024-04-22T02:35:37.363Z,6.00
2024-04-22T02:38:04.980Z,6.20
2024-04-22T02:40:32.035Z,5.30
2024-04-22T02:42:59.116Z,5.30
2024-04-22T02:45:27.127Z,5.30
2024-04-22T02:47:54.179Z,5.10
2024-04-22T02:50:21.116Z,5.40
2024-04-22T02:52:48.141Z,5.10
2024-04-22T02:55:15.130Z,5.00
2024-04-22T02:57:42.191Z,5.10
2024-04-22T03:00:09.780Z,5.10
2024-04-22T03:02:38.825Z,5.20
2024-04-22T03:05:06.638Z,5.10
2024-04-22T03:07:33.723Z,5.10
2024-04-22T03:10:00.699Z,5.00
2024-04-22T03:12:27.653Z,5.20
2024-04-22T03:14:54.568Z,5.20
2024-04-22T03:17:21.558Z,5.20
2024-04-22T03:19:48.567Z,5.20
2024-04-22T03:22:15.601Z,5.50
2024-04-22T03:24:42.681Z,5.10
2024-04-22T03:27:09.646Z,4.80
2024-04-22T03:29:36.670Z,5.70
2024-04-22T03:32:04.044Z,5.30
2024-04-22T03:34:31.053Z,5.60
2024-04-22T03:36:58.006Z,5.80
2024-04-22T03:39:24.944Z,5.60
2024-04-22T03:41:52.192Z,5.60
2024-04-22T03:44:19.147Z,5.40
2024-04-22T03:47:04.780Z,5.30
2024-04-22T03:49:50.412Z,5.70
2024-04-22T03:52:17.356Z,5.10
2024-04-22T03:54:44.336Z,5.90
2024-04-22T03:57:11.285Z,6.10
2024-04-22T03:59:39.506Z,5.50
2024-04-22T04:02:06.906Z,5.30
2024-04-22T04:04:34.022Z,5.20
2024-04-22T04:07:01.048Z,5.50
2024-04-22T04:09:28.014Z,5.30
2024-04-22T04:11:55.022Z,5.80
2024-04-22T04:14:22.017Z,5.60
2024-04-22T04:16:49.060Z,5.70
2024-04-22T04:19:16.084Z,5.50
2024-04-22T04:21:43.174Z,5.30
2024-04-22T04:24:10.126Z,5.30
2024-04-22T04:26:37.148Z,5.40
2024-04-22T04:29:04.153Z,5.70
2024-04-22T04:31:31.192Z,6.00
2024-04-22T04:33:58.173Z,5.60
2024-04-22T04:36:25.134Z,5.70
2024-04-22T04:38:52.057Z,5.30
2024-04-22T04:41:21.379Z,5.40
2024-04-22T04:43:48.963Z,5.50
2024-04-22T04:46:16.039Z,5.90
2024-04-22T04:48:43.110Z,5.70
2024-04-22T04:51:10.051Z,5.70
2024-04-22T04:53:37.018Z,5.70
2024-04-22T04:56:04.085Z,5.70
2024-04-22T04:58:31.300Z,5.50
2024-04-22T05:00:58.397Z,6.10
2024-04-22T05:03:25.523Z,6.00
2024-04-22T05:06:02.833Z,5.80
2024-04-22T05:08:30.209Z,5.90
2024-04-22T05:10:59.738Z,5.80
2024-04-22T05:13:26.749Z,5.60
2024-04-22T05:15:53.700Z,5.40
2024-04-22T05:18:20.651Z,5.70
2024-04-22T05:20:47.631Z,5.60
2024-04-22T05:23:14.583Z,5.40
2024-04-22T05:25:41.565Z,5.70
2024-04-22T05:28:09.097Z,5.60
2024-04-22T05:30:36.284Z,6.00
2024-04-22T05:33:24.016Z,5.70
2024-04-22T05:36:10.429Z,6.00
2024-04-22T05:38:42.809Z,6.30
2024-04-22T05:41:10.467Z,6.30
2024-04-22T05:43:38.344Z,6.10
2024-04-22T05:46:09.761Z,6.10
2024-04-22T05:48:37.038Z,6.00
2024-04-22T05:51:04.388Z,5.90
2024-04-22T05:53:31.412Z,5.60
2024-04-22T05:55:58.403Z,5.50
2024-04-22T05:58:25.435Z,5.30
2024-04-22T06:00:52.437Z,5.50
2024-04-22T06:03:19.376Z,5.60
2024-04-22T06:05:46.349Z,5.60
2024-04-22T06:08:13.392Z,5.60
2024-04-22T06:10:40.424Z,5.60
2024-04-22T06:13:07.422Z,5.80
2024-04-22T06:15:34.387Z,6.00
2024-04-22T06:18:01.424Z,6.30
2024-04-22T06:20:28.867Z,6.20
2024-04-22T06:22:55.876Z,5.90
2024-04-22T06:25:22.872Z,5.80
2024-04-22T06:27:51.559Z,6.20
2024-04-22T06:30:18.753Z,6.30
2024-04-22T06:32:46.365Z,6.10
2024-04-22T06:35:13.416Z,6.30
2024-04-22T06:37:40.418Z,6.40
2024-04-22T06:40:08.283Z,5.90
2024-04-22T06:42:35.200Z,6.00
2024-04-22T06:45:02.206Z,6.00
2024-04-22T06:47:29.362Z,6.20
2024-04-22T06:49:56.470Z,6.00
2024-04-22T06:52:23.556Z,5.80
2024-04-22T06:54:50.580Z,5.90
2024-04-22T06:57:18.684Z,5.70
2024-04-22T06:59:47.892Z,6.00
2024-04-22T07:02:19.325Z,5.90
2024-04-22T07:04:49.561Z,5.90
2024-04-22T07:07:16.601Z,5.60
2024-04-22T07:09:43.569Z,5.80
2024-04-22T07:12:10.523Z,6.00
2024-04-22T07:14:37.555Z,6.30
2024-04-22T07:17:04.857Z,6.10
2024-04-22T07:19:31.856Z,6.40
2024-04-22T07:22:01.639Z,5.90
2024-04-22T07:24:28.938Z,6.20
2024-04-22T07:26:55.999Z,5.70
2024-04-22T07:29:23.676Z,6.00
2024-04-22T07:31:51.941Z,5.80
2024-04-22T07:34:19.317Z,5.70
2024-04-22T07:37:19.345Z,6.30
2024-04-22T07:39:51.194Z,6.20
2024-04-22T07:42:19.389Z,6.00
2024-04-22T07:44:46.524Z,6.30
2024-04-22T07:47:13.521Z,5.70
2024-04-22T07:49:40.485Z,6.00
2024-04-22T07:52:08.242Z,6.10
2024-04-22T07:54:35.447Z,6.10
2024-04-22T07:57:02.768Z,6.20
2024-04-22T07:59:30.077Z,5.80
2024-04-22T08:01:57.345Z,6.00
2024-04-22T08:04:24.657Z,6.70
2024-04-22T08:06:54.157Z,7.20
2024-04-22T08:09:22.608Z,7.40
2024-04-22T08:11:50.897Z,7.20
2024-04-22T08:14:17.891Z,6.80
2024-04-22T08:16:44.858Z,7.40
2024-04-22T08:19:12.347Z,6.40
2024-04-22T08:21:39.383Z,7.10
2024-04-22T08:24:06.766Z,7.10
2024-04-22T08:26:33.737Z,7.30
2024-04-22T08:29:00.773Z,7.20
2024-04-22T08:31:27.841Z,7.40
2024-04-22T08:33:54.880Z,7.80
2024-04-22T08:36:25.207Z,7.50
2024-04-22T08:38:52.273Z,7.30
2024-04-22T08:41:20.244Z,7.60
2024-04-22T08:43:48.106Z,7.70
2024-04-22T08:46:15.383Z,7.20
2024-04-22T08:48:42.454Z,6.80
2024-04-22T08:51:10.249Z,7.00
2024-04-22T08:53:37.274Z,7.00
2024-04-22T08:56:04.552Z,6.80
2024-04-22T08:58:34.169Z,7.30
2024-04-22T09:01:08.534Z,7.30
2024-04-22T09:03:35.680Z,7.40
2024-04-22T09:06:02.903Z,7.30
2024-04-22T09:08:30.035Z,7.80
2024-04-22T09:11:34.781Z,7.60
2024-04-22T09:13:46.494Z,7.50
2024-04-22T09:16:17.647Z,7.20
2024-04-22T09:18:45.374Z,7.40
2024-04-22T09:21:12.674Z,7.40
2024-04-22T09:23:40.191Z,7.80
2024-04-22T09:26:08.250Z,6.70
2024-04-22T09:28:37.247Z,7.10
2024-04-22T09:31:06.317Z,7.20
2024-04-22T09:33:38.262Z,7.00
2024-04-22T09:36:06.847Z,7.70
2024-04-22T09:38:44.287Z,7.20
2024-04-22T09:41:15.397Z,7.30
2024-04-22T09:43:49.622Z,7.10
2024-04-22T09:46:20.772Z,7.30
2024-04-22T09:48:52.253Z,6.90
2024-04-22T09:51:20.714Z,7.60
2024-04-22T09:53:47.975Z,7.50
2024-04-22T09:56:26.162Z,7.00
2024-04-22T09:58:53.536Z,7.10
2024-04-22T10:01:21.246Z,7.20
2024-04-22T10:03:48.688Z,7.10
2024-04-22T10:06:16.806Z,7.00
2024-04-22T10:08:44.056Z,6.90
2024-04-22T10:11:13.036Z,7.00
2024-04-22T10:13:40.638Z,7.50
2024-04-22T10:16:14.833Z,7.20
2024-04-22T10:18:49.383Z,6.90
2024-04-22T10:21:16.690Z,6.80
2024-04-22T10:23:45.041Z,7.40
2024-04-22T10:26:21.641Z,7.30
2024-04-22T10:28:50.143Z,7.10
2024-04-22T10:31:22.355Z,7.40
2024-04-22T10:33:52.944Z,7.10
2024-04-22T10:36:20.094Z,7.50
2024-04-22T10:38:47.144Z,7.40
2024-04-22T10:41:15.166Z,7.60
2024-04-22T10:43:43.551Z,7.30
2024-04-22T10:46:11.218Z,7.30
2024-04-22T10:48:38.883Z,7.60
2024-04-22T10:51:06.000Z,7.60
2024-04-22T10:53:34.159Z,8.10
2024-04-22T10:56:01.767Z,8.00
2024-04-22T10:58:29.083Z,8.00
2024-04-22T11:00:56.321Z,8.20
2024-04-22T11:03:24.263Z,8.30
2024-04-22T11:05:51.329Z,8.60
2024-04-22T11:08:19.622Z,8.80
2024-04-22T11:10:47.146Z,9.00
2024-04-22T11:13:15.269Z,9.00
2024-04-22T11:15:42.427Z,9.10
2024-04-22T11:18:09.725Z,9.00
2024-04-22T11:20:37.978Z,8.80
2024-04-22T11:23:06.221Z,9.20
2024-04-22T11:25:33.495Z,9.10
2024-04-22T11:28:01.785Z,8.90
2024-04-22T11:30:29.968Z,9.30
2024-04-22T11:32:57.391Z,9.30
2024-04-22T11:35:24.525Z,9.30
2024-04-22T11:37:54.245Z,9.00
2024-04-22T11:40:21.509Z,9.00
2024-04-22T11:42:48.854Z,9.10
2024-04-22T11:45:16.067Z,9.30
2024-04-22T11:47:43.239Z,9.70
2024-04-22T11:50:10.253Z,8.90
2024-04-22T11:52:37.485Z,9.30
2024-04-22T11:55:05.061Z,9.40
2024-04-22T11:57:32.072Z,8.90
2024-04-22T11:59:59.336Z,9.10
2024-04-22T12:02:26.337Z,9.50
2024-04-22T12:04:54.139Z,9.20
2024-04-22T12:07:21.704Z,8.90
2024-04-22T12:09:48.692Z,9.10
2024-04-22T12:12:15.745Z,8.60
2024-04-22T12:14:42.690Z,9.40
2024-04-22T12:17:11.384Z,9.60
2024-04-22T12:19:38.627Z,9.50
2024-04-22T12:22:05.617Z,9.70
2024-04-22T12:24:32.582Z,9.90
2024-04-22T12:27:01.486Z,10.40
2024-04-22T12:29:29.271Z,10.40
2024-04-22T12:31:56.322Z,10.10
2024-04-22T12:34:23.607Z,10.10
2024-04-22T12:36:50.695Z,10.30
2024-04-22T12:39:17.678Z,9.50
2024-04-22T12:41:45.107Z,10.00
2024-04-22T12:44:12.163Z,9.80
2024-04-22T12:47:01.930Z,9.80
2024-04-22T12:49:50.186Z,10.50
2024-04-22T12:52:19.727Z,10.50
2024-04-22T12:54:46.732Z,10.50
2024-04-22T12:57:13.703Z,10.10
2024-04-22T12:59:40.659Z,10.50
2024-04-22T13:02:11.948Z,10.60
2024-04-22T13:04:39.150Z,10.60
2024-04-22T13:07:06.300Z,10.20
2024-04-22T13:09:35.604Z,10.40
2024-04-22T13:12:04.131Z,10.10
2024-04-22T13:14:31.140Z,9.70
2024-04-22T13:16:58.095Z,10.20
2024-04-22T13:19:25.071Z,10.00
2024-04-22T13:21:52.135Z,9.80
2024-04-22T13:24:19.950Z,9.90
2024-04-22T13:26:47.465Z,10.20
2024-04-22T13:29:14.490Z,9.90
2024-04-22T13:31:47.117Z,10.20
2024-04-22T13:34:19.133Z,10.10
2024-04-22T13:36:46.198Z,10.00
2024-04-22T13:39:13.306Z,10.20
2024-04-22T13:41:40.444Z,10.00
2024-04-22T13:44:07.617Z,9.50
2024-04-22T13:46:35.722Z,9.20
2024-04-22T13:49:02.769Z,9.70
2024-04-22T13:51:29.835Z,9.40
2024-04-22T13:53:56.775Z,9.10
2024-04-22T13:56:23.726Z,9.70
2024-04-22T13:58:50.721Z,9.50
2024-04-22T14:01:17.755Z,9.30
2024-04-22T14:03:44.842Z,9.20
2024-04-22T14:06:11.933Z,9.00
2024-04-22T14:08:39.032Z,9.40
2024-04-22T14:11:07.520Z,9.40
2024-04-22T14:13:34.667Z,9.60
2024-04-22T14:16:01.999Z,8.80
2024-04-22T14:18:29.309Z,8.80
2024-04-22T14:20:56.391Z,9.10
2024-04-22T14:23:23.371Z,9.00
2024-04-22T14:25:52.531Z,9.20
2024-04-22T14:28:19.601Z,9.70
2024-04-22T14:30:46.568Z,9.50
2024-04-22T14:33:14.243Z,9.30
2024-04-22T14:35:41.401Z,9.30
2024-04-22T14:38:08.359Z,9.50
2024-04-22T14:40:35.761Z,9.50
2024-04-22T14:43:03.047Z,9.60
2024-04-22T14:45:31.733Z,9.00
2024-04-22T14:47:59.090Z,9.20
2024-04-22T14:50:26.100Z,9.20
2024-04-22T14:52:53.135Z,9.50
2024-04-22T14:55:21.004Z,9.10
2024-04-22T14:57:48.170Z,9.40
2024-04-22T15:00:15.258Z,9.50
2024-04-22T15:02:42.257Z,9.50
2024-04-22T15:05:09.492Z,9.60
2024-04-22T15:07:36.601Z,9.70
2024-04-22T15:10:03.817Z,9.50
2024-04-22T15:12:30.787Z,9.50
2024-04-22T15:14:57.760Z,9.50
2024-04-22T15:17:24.791Z,9.50
2024-04-22T15:19:51.856Z,10.00
2024-04-22T15:22:18.876Z,9.50
2024-04-22T15:24:45.864Z,9.20
2024-04-22T15:27:12.820Z,9.50
2024-04-22T15:29:39.853Z,9.20
2024-04-22T15:32:07.721Z,9.30
2024-04-22T15:34:34.861Z,9.20
2024-04-22T15:37:05.955Z,9.60
2024-04-22T15:39:33.713Z,9.20
2024-04-22T15:42:00.743Z,9.10
2024-04-22T15:44:27.724Z,9.50
2024-04-22T15:46:54.821Z,9.60
2024-04-22T15:49:21.935Z,9.30
2024-04-22T15:51:48.928Z,9.40
2024-04-22T15:54:15.890Z,9.40
2024-04-22T15:56:42.988Z,9.80
2024-04-22T15:59:10.015Z,10.00
2024-04-22T16:01:37.116Z,9.90
2024-04-22T16:04:04.265Z,9.50
2024-04-22T16:06:31.249Z,9.50
2024-04-22T16:09:02.955Z,9.70
2024-04-22T16:11:32.950Z,9.70
2024-04-22T16:14:01.355Z,9.90
2024-04-22T16:16:28.377Z,9.90
2024-04-22T16:18:55.359Z,9.90
2024-04-22T16:21:22.561Z,9.50
2024-04-22T16:23:49.523Z,9.70
2024-04-22T16:26:17.991Z,9.60
2024-04-22T16:28:47.044Z,9.90
2024-04-22T16:31:14.218Z,9.60
2024-04-22T16:33:41.212Z,9.80
2024-04-22T16:36:08.359Z,9.70
2024-04-22T16:38:35.377Z,9.80
2024-04-22T16:41:02.402Z,9.40
2024-04-22T16:43:30.411Z,9.70
2024-04-22T16:45:57.410Z,10.00
2024-04-22T16:48:26.478Z,9.50
2024-04-22T16:50:54.098Z,9.30
2024-04-22T16:53:24.193Z,9.10
2024-04-22T16:55:51.590Z,8.80
2024-04-22T16:58:18.736Z,9.40
2024-04-22T17:00:45.857Z,9.30
2024-04-22T17:03:12.931Z,9.50
2024-04-22T17:05:39.887Z,9.30
2024-04-22T17:08:07.320Z,9.20
2024-04-22T17:10:34.311Z,9.60
2024-04-22T17:13:01.295Z,9.50
2024-04-22T17:15:28.247Z,9.70
2024-04-22T17:17:55.349Z,9.80
2024-04-22T17:20:22.435Z,9.40
2024-04-22T17:22:49.437Z,8.90
2024-04-22T17:25:16.460Z,9.20
2024-04-22T17:27:43.417Z,9.40
2024-04-22T17:30:10.902Z,9.40
2024-04-22T17:32:38.049Z,9.30
2024-04-22T17:35:05.629Z,8.90
2024-04-22T17:37:32.997Z,9.30
2024-04-22T17:40:01.058Z,9.50
2024-04-22T17:42:28.034Z,9.30
2024-04-22T17:44:55.286Z,9.20
2024-04-22T17:47:22.265Z,9.40
2024-04-22T17:49:49.299Z,9.40
2024-04-22T17:52:16.323Z,9.50
2024-04-22T17:54:44.684Z,9.30
2024-04-22T17:57:12.708Z,9.00
2024-04-22T17:59:39.685Z,9.10
2024-04-22T18:02:07.119Z,9.40
2024-04-22T18:04:34.142Z,9.10
2024-04-22T18:07:01.229Z,9.10
2024-04-22T18:09:28.765Z,9.20
2024-04-22T18:11:59.537Z,8.80
2024-04-22T18:14:27.099Z,9.30
2024-04-22T18:16:55.178Z,8.90
2024-04-22T18:19:22.332Z,8.90
2024-04-22T18:21:49.325Z,8.80
2024-04-22T18:24:16.323Z,8.90
2024-04-22T18:26:43.433Z,8.90
2024-04-22T18:29:10.427Z,8.60
2024-04-22T18:31:37.427Z,8.80
2024-04-22T18:34:04.391Z,8.80
2024-04-22T18:36:31.369Z,8.70
2024-04-22T18:38:58.314Z,8.10
2024-04-22T18:41:25.292Z,8.30
2024-04-22T18:43:52.395Z,8.50
2024-04-22T18:46:19.477Z,8.40
2024-04-22T18:48:46.405Z,8.40
2024-04-22T18:51:13.770Z,8.40
2024-04-22T18:53:40.735Z,8.10
2024-04-22T18:56:07.873Z,7.80
2024-04-22T18:58:34.997Z,7.80
2024-04-22T19:01:02.035Z,8.00
2024-04-22T19:03:29.276Z,7.80
2024-04-22T19:05:56.301Z,7.90
2024-04-22T19:08:23.309Z,8.20
2024-04-22T19:10:50.372Z,8.20
2024-04-22T19:13:17.682Z,8.20
2024-04-22T19:15:44.683Z,7.70
2024-04-22T19:18:13.134Z,7.80
2024-04-22T19:20:40.565Z,8.00
2024-04-22T19:23:07.976Z,8.10
2024-04-22T19:25:41.411Z,8.00
2024-04-22T19:28:08.601Z,8.90
2024-04-22T19:30:40.420Z,8.80
2024-04-22T19:33:07.723Z,8.70
2024-04-22T19:35:36.576Z,8.30
2024-04-22T19:38:04.193Z,8.00
2024-04-22T19:40:32.705Z,8.20
2024-04-22T19:43:00.027Z,7.90
2024-04-22T19:45:27.031Z,8.10
2024-04-22T19:47:54.003Z,8.00
2024-04-22T19:50:20.960Z,8.00
2024-04-22T19:52:47.908Z,7.70
2024-04-22T19:55:15.116Z,7.90
2024-04-22T19:57:42.299Z,7.90
2024-04-22T20:00:10.362Z,8.10
2024-04-22T20:02:37.418Z,8.20
2024-04-22T20:05:05.121Z,8.00
2024-04-22T20:07:32.333Z,7.90
2024-04-22T20:09:59.282Z,7.60
2024-04-22T20:12:26.468Z,7.50
2024-04-22T20:14:53.422Z,7.60
2024-04-22T20:17:31.375Z,7.30
2024-04-22T20:19:58.684Z,7.60
2024-04-22T20:22:27.146Z,7.50
2024-04-22T20:24:54.165Z,7.20
2024-04-22T20:27:21.227Z,7.20
2024-04-22T20:29:51.353Z,7.20
2024-04-22T20:32:18.439Z,7.70
2024-04-22T20:34:49.799Z,7.40
2024-04-22T20:37:16.852Z,7.70
2024-04-22T20:39:43.991Z,7.70
2024-04-22T20:42:11.014Z,7.70
2024-04-22T20:44:37.962Z,7.70
2024-04-22T20:47:05.029Z,7.70
2024-04-22T20:49:32.037Z,7.50
2024-04-22T20:51:59.003Z,7.30
2024-04-22T20:54:26.061Z,7.50
2024-04-22T20:56:53.027Z,7.30
2024-04-22T20:59:20.014Z,6.90
2024-04-22T21:01:47.033Z,6.90
2024-04-22T21:04:14.041Z,7.00
2024-04-22T21:06:41.012Z,6.80
2024-04-22T21:09:08.545Z,7.20
2024-04-22T21:11:35.528Z,6.90
2024-04-22T21:14:04.246Z,7.30
2024-04-22T21:16:31.332Z,7.60
2024-04-22T21:19:07.405Z,7.20
2024-04-22T21:21:41.894Z,6.80
2024-04-22T21:24:08.932Z,7.00
2024-04-22T21:26:35.894Z,7.10
2024-04-22T21:29:02.950Z,6.60
2024-04-22T21:31:29.961Z,6.90
2024-04-22T21:34:07.812Z,6.70
2024-04-22T21:36:36.781Z,6.90
2024-04-22T21:39:04.246Z,6.50
2024-04-22T21:41:31.258Z,6.80
2024-04-22T21:43:58.312Z,7.20
2024-04-22T21:46:25.460Z,6.60
2024-04-22T21:48:52.533Z,6.90
2024-04-22T21:51:19.476Z,6.80
2024-04-22T21:53:48.714Z,7.20
2024-04-22T21:56:20.036Z,6.70
2024-04-22T21:59:43.771Z,7.00
2024-04-22T22:03:07.333Z,6.80
2024-04-22T22:06:31.008Z,6.70
2024-04-22T22:08:57.821Z,7.00
2024-04-22T22:11:24.909Z,6.50
2024-04-22T22:13:51.946Z,6.60
2024-04-22T22:16:18.975Z,6.60
2024-04-22T22:18:46.007Z,6.60
2024-04-22T22:21:12.976Z,7.00
2024-04-22T22:23:39.917Z,6.70
2024-04-22T22:26:06.849Z,6.60
2024-04-22T22:28:33.984Z,6.50
2024-04-22T22:31:00.955Z,6.70
2024-04-22T22:33:27.930Z,6.50
2024-04-22T22:35:54.880Z,6.30
2024-04-22T22:38:21.814Z,6.30
2024-04-22T22:40:48.811Z,6.20
2024-04-22T22:43:15.795Z,6.40
2024-04-22T22:45:42.742Z,6.20
2024-04-22T22:48:09.762Z,6.50
2024-04-22T22:50:36.822Z,6.60
2024-04-22T22:53:05.247Z,6.00
2024-04-22T22:55:32.398Z,6.10
2024-04-22T22:57:59.386Z,6.20
2024-04-22T23:00:26.345Z,6.40
2024-04-22T23:02:53.371Z,6.40
2024-04-22T23:05:20.312Z,6.30
2024-04-22T23:07:47.300Z,6.40
2024-04-22T23:10:14.529Z,6.10
2024-04-22T23:12:41.549Z,6.10
2024-04-22T23:15:08.629Z,6.00
2024-04-22T23:17:35.642Z,6.30
2024-04-22T23:20:02.654Z,5.90
2024-04-22T23:22:29.612Z,5.80
2024-04-22T23:24:56.672Z,5.90
2024-04-22T23:27:23.667Z,6.00
2024-04-22T23:29:50.659Z,6.40
2024-04-22T23:32:17.682Z,5.70
2024-04-22T23:34:44.770Z,5.70
2024-04-22T23:37:11.802Z,5.90
2024-04-22T23:39:38.754Z,6.00
2024-04-22T23:42:06.371Z,5.90
2024-04-22T23:44:33.394Z,6.10
2024-04-22T23:47:00.465Z,5.80
2024-04-22T23:49:27.556Z,5.70
2024-04-22T23:51:55.342Z,6.00
2024-04-22T23:54:22.697Z,5.70
2024-04-22T23:57:01.987Z,5.40
2024-04-22T23:59:32.551Z,5.30
